createdAt,value
2019-02-08T00:01:29.946Z,106.55
2019-02-08T00:03:58.036Z,102.60
2019-02-08T00:06:26.625Z,101.17
2019-02-08T00:08:54.723Z,107.67
2019-02-08T00:11:22.776Z,104.00
2019-02-08T00:13:50.855Z,102.13
2019-02-08T00:16:18.983Z,107.03
2019-02-08T00:18:47.201Z,105.27
2019-02-08T00:21:15.289Z,107.92
2019-02-08T00:23:43.417Z,105.07
2019-02-08T00:26:11.512Z,109.60
2019-02-08T00:28:39.610Z,104.93
2019-02-08T00:31:07.624Z,105.37
2019-02-08T00:33:35.611Z,102.50
2019-02-08T00:36:04.088Z,109.17
2019-02-08T00:38:32.167Z,100.00
2019-02-08T00:41:00.250Z,109.85
2019-02-08T00:43:28.179Z,107.65
2019-02-08T00:45:56.179Z,106.65
2019-02-08T00:48:24.119Z,109.92
2019-02-08T00:50:52.092Z,113.93
2019-02-08T00:53:20.400Z,113.68
2019-02-08T00:55:48.495Z,107.87
2019-02-08T00:58:16.535Z,109.83
2019-02-08T01:00:44.583Z,99.55
2019-02-08T01:03:12.779Z,109.07
2019-02-08T01:05:41.113Z,109.70
2019-02-08T01:08:09.124Z,106.85
2019-02-08T01:10:37.413Z,107.55
2019-02-08T01:13:05.616Z,112.05
2019-02-08T01:15:33.751Z,113.80
2019-02-08T01:18:01.829Z,108.83
2019-02-08T01:20:29.924Z,106.35
2019-02-08T01:22:57.952Z,103.58
2019-02-08T01:25:26.226Z,103.60
2019-02-08T01:27:54.327Z,100.27
2019-02-08T01:30:26.311Z,106.45
2019-02-08T01:32:54.356Z,100.82
2019-02-08T01:35:22.594Z,107.70
2019-02-08T01:37:50.963Z,104.38
2019-02-08T01:40:21.036Z,106.63
2019-02-08T01:42:48.973Z,106.17
2019-02-08T01:45:18.192Z,106.37
2019-02-08T01:47:46.335Z,110.32
2019-02-08T01:50:15.504Z,104.87
2019-02-08T01:52:43.496Z,99.83
2019-02-08T01:55:11.610Z,102.70
2019-02-08T01:57:39.655Z,100.90
2019-02-08T02:00:12.610Z,106.17
2019-02-08T02:02:40.659Z,110.78
2019-02-08T02:05:08.584Z,106.07
2019-02-08T02:07:36.661Z,105.90
2019-02-08T02:10:05.572Z,110.70
2019-02-08T02:12:33.500Z,102.42
2019-02-08T02:15:01.522Z,98.55
2019-02-08T02:17:29.546Z,105.05
2019-02-08T02:19:57.928Z,107.27
2019-02-08T02:22:25.923Z,106.30
2019-02-08T02:24:53.880Z,102.92
2019-02-08T02:27:22.298Z,96.90
2019-02-08T02:29:50.314Z,97.95
2019-02-08T02:32:18.273Z,93.37
2019-02-08T02:34:46.301Z,98.72
2019-02-08T02:37:14.346Z,99.72
2019-02-08T02:39:42.333Z,103.72
2019-02-08T02:42:10.369Z,97.88
2019-02-08T02:44:38.937Z,103.62
2019-02-08T02:47:06.930Z,97.62
2019-02-08T02:49:34.999Z,102.20
2019-02-08T02:52:02.981Z,107.37
2019-02-08T02:54:31.029Z,108.55
2019-02-08T02:56:59.112Z,97.82
2019-02-08T02:59:27.168Z,107.25
2019-02-08T03:01:55.164Z,102.70
2019-02-08T03:04:23.210Z,99.62
2019-02-08T03:06:51.505Z,100.53
2019-02-08T03:09:19.480Z,97.62
2019-02-08T03:11:47.482Z,104.50
2019-02-08T03:14:15.530Z,102.82
2019-02-08T03:16:43.488Z,98.30
2019-02-08T03:19:11.553Z,104.25
2019-02-08T03:21:39.671Z,98.92
2019-02-08T03:24:12.924Z,96.25
2019-02-08T03:26:37.288Z,94.83
2019-02-08T03:29:05.273Z,99.72
2019-02-08T03:31:33.334Z,103.45
2019-02-08T03:34:01.444Z,93.47
2019-02-08T03:36:29.476Z,97.10
2019-02-08T03:38:57.561Z,101.25
2019-02-08T03:41:25.619Z,99.87
2019-02-08T03:43:53.604Z,101.62
2019-02-08T03:46:21.548Z,95.75
2019-02-08T03:48:50.577Z,107.47
2019-02-08T03:51:18.643Z,103.53
2019-02-08T03:53:46.612Z,99.92
2019-02-08T03:56:14.577Z,99.17
2019-02-08T03:58:42.636Z,95.30
2019-02-08T04:01:11.631Z,94.47
2019-02-08T04:03:41.512Z,100.70
2019-02-08T04:06:09.511Z,91.28
2019-02-08T04:08:37.474Z,97.62
2019-02-08T04:11:05.464Z,93.50
2019-02-08T04:13:33.433Z,101.45
2019-02-08T04:16:01.388Z,99.37
2019-02-08T04:18:29.375Z,105.83
2019-02-08T04:20:57.339Z,101.80
2019-02-08T04:23:25.348Z,102.70
2019-02-08T04:25:53.282Z,102.25
2019-02-08T04:28:21.369Z,99.42
2019-02-08T04:30:49.430Z,98.22
2019-02-08T04:33:17.463Z,100.00
2019-02-08T04:35:45.457Z,95.00
2019-02-08T04:38:13.521Z,94.93
2019-02-08T04:40:41.504Z,101.57
2019-02-08T04:43:09.577Z,96.67
2019-02-08T04:45:37.619Z,95.13
2019-02-08T04:48:05.617Z,103.63
2019-02-08T04:50:33.776Z,107.63
2019-02-08T04:53:01.761Z,103.03
2019-02-08T04:55:29.703Z,100.13
2019-02-08T04:57:57.681Z,97.27
2019-02-08T05:00:29.578Z,104.00
2019-02-08T05:02:57.597Z,96.37
2019-02-08T05:05:25.596Z,98.40
2019-02-08T05:07:53.554Z,94.67
2019-02-08T05:10:22.702Z,101.87
2019-02-08T05:12:50.779Z,99.60
2019-02-08T05:15:18.995Z,93.17
2019-02-08T05:17:47.162Z,91.63
2019-02-08T05:20:15.796Z,87.23
2019-02-08T05:22:43.768Z,93.77
2019-02-08T05:25:11.948Z,91.63
2019-02-08T05:27:39.876Z,100.70
2019-02-08T05:30:10.635Z,93.23
2019-02-08T05:32:38.668Z,88.90
2019-02-08T05:35:06.948Z,95.07
2019-02-08T05:37:35.331Z,96.93
2019-02-08T05:40:03.303Z,96.47
2019-02-08T05:42:31.257Z,97.35
2019-02-08T05:44:59.748Z,99.40
2019-02-08T05:47:27.697Z,95.72
2019-02-08T05:49:55.673Z,96.77
2019-02-08T05:52:23.649Z,99.73
2019-02-08T05:54:54.455Z,89.20
2019-02-08T05:57:21.334Z,91.30
2019-02-08T05:59:49.397Z,87.60
2019-02-08T06:02:17.364Z,92.13
2019-02-08T06:04:45.380Z,97.90
2019-02-08T06:07:13.389Z,88.12
2019-02-08T06:09:41.415Z,96.20
2019-02-08T06:12:09.377Z,97.10
2019-02-08T06:14:37.414Z,90.60
2019-02-08T06:17:05.403Z,95.97
2019-02-08T06:19:33.768Z,95.97
2019-02-08T06:22:01.729Z,90.80
2019-02-08T06:24:29.812Z,94.30
2019-02-08T06:26:57.776Z,95.20
2019-02-08T06:29:25.731Z,99.23
2019-02-08T06:31:53.717Z,98.80
2019-02-08T06:34:21.677Z,91.57
2019-02-08T06:36:49.679Z,92.57
2019-02-08T06:39:17.612Z,88.37
2019-02-08T06:41:45.591Z,99.33
2019-02-08T06:44:13.576Z,93.10
2019-02-08T06:46:41.505Z,94.67
2019-02-08T06:49:09.487Z,93.37
2019-02-08T06:51:37.544Z,101.07
2019-02-08T06:54:06.159Z,95.20
2019-02-08T06:57:11.582Z,97.80
2019-02-08T06:59:54.729Z,87.10
2019-02-08T07:02:28.979Z,100.73
2019-02-08T07:05:28.337Z,94.13
2019-02-08T07:08:12.729Z,104.17
2019-02-08T07:11:14.779Z,98.90
2019-02-08T07:14:07.823Z,95.87
2019-02-08T07:17:13.126Z,100.90
2019-02-08T07:19:58.720Z,113.30
2019-02-08T07:22:45.550Z,100.27
2019-02-08T07:25:31.540Z,97.93
2019-02-08T07:28:12.834Z,94.67
2019-02-08T07:31:05.624Z,96.07
2019-02-08T07:33:51.196Z,115.90
2019-02-08T07:36:54.150Z,94.20
2019-02-08T07:39:52.796Z,100.83
2019-02-08T07:42:34.027Z,96.77
2019-02-08T07:45:39.934Z,99.97
2019-02-08T07:48:36.338Z,93.67
2019-02-08T07:51:22.813Z,96.43
2019-02-08T07:54:11.372Z,94.57
2019-02-08T07:56:57.567Z,97.93
2019-02-08T07:59:45.376Z,100.17
2019-02-08T08:02:31.166Z,97.30
2019-02-08T08:05:16.035Z,101.60
2019-02-08T08:07:54.875Z,97.00
2019-02-08T08:10:42.264Z,95.17
2019-02-08T08:13:20.620Z,98.07
2019-02-08T08:16:11.440Z,98.27
2019-02-08T08:18:58.946Z,103.93
2019-02-08T08:21:48.950Z,109.20
2019-02-08T08:24:33.589Z,119.17
2019-02-08T08:27:13.143Z,106.20
2019-02-08T08:29:58.818Z,99.67
2019-02-08T08:32:36.720Z,114.67
2019-02-08T08:35:30.153Z,106.90
2019-02-08T08:38:20.324Z,114.17
2019-02-08T08:41:07.318Z,101.67
2019-02-08T08:43:43.373Z,104.40
2019-02-08T08:46:19.291Z,107.87
2019-02-08T08:49:13.380Z,117.30
2019-02-08T08:51:53.124Z,126.60
2019-02-08T08:54:43.226Z,113.63
2019-02-08T08:57:19.729Z,104.77
2019-02-08T09:00:05.656Z,111.83
2019-02-08T09:02:51.451Z,108.23
2019-02-08T09:05:41.236Z,113.10
2019-02-08T09:08:27.127Z,120.20
2019-02-08T09:11:04.945Z,105.97
2019-02-08T09:13:45.518Z,100.43
2019-02-08T09:16:24.922Z,101.37
2019-02-08T09:19:12.961Z,101.40
2019-02-08T09:21:56.816Z,108.50
2019-02-08T09:24:35.872Z,99.43
2019-02-08T09:27:18.591Z,101.90
2019-02-08T09:30:05.664Z,95.90
2019-02-08T09:32:41.671Z,105.77
2019-02-08T09:35:28.717Z,96.80
2019-02-08T09:38:18.788Z,103.47
2019-02-08T09:41:06.007Z,104.97
2019-02-08T09:43:46.287Z,106.13
2019-02-08T09:46:36.188Z,113.67
2019-02-08T09:49:21.201Z,104.57
2019-02-08T09:51:57.240Z,113.60
2019-02-08T09:54:43.272Z,107.70
2019-02-08T09:57:36.494Z,102.90
2019-02-08T10:00:23.202Z,105.60
2019-02-08T10:03:07.620Z,107.50
2019-02-08T10:05:51.436Z,99.37
2019-02-08T10:08:38.625Z,100.43
2019-02-08T10:11:30.185Z,97.90
2019-02-08T10:14:28.553Z,99.20
2019-02-08T10:17:24.553Z,96.60
2019-02-08T10:20:07.132Z,90.90
2019-02-08T10:23:06.444Z,94.93
2019-02-08T10:26:05.738Z,92.00
2019-02-08T10:28:52.930Z,91.50
2019-02-08T10:31:42.904Z,92.67
2019-02-08T10:34:32.894Z,97.47
2019-02-08T10:37:18.695Z,97.77
2019-02-08T10:40:12.140Z,98.63
2019-02-08T10:42:58.467Z,97.90
2019-02-08T10:46:03.709Z,96.23
2019-02-08T10:49:03.909Z,92.40
2019-02-08T10:51:42.313Z,102.80
2019-02-08T10:54:26.992Z,105.83
2019-02-08T10:57:17.087Z,100.03
2019-02-08T11:00:09.950Z,102.03
2019-02-08T11:02:57.968Z,95.77
2019-02-08T11:05:44.778Z,109.53
2019-02-08T11:08:32.651Z,103.57
2019-02-08T11:11:19.519Z,100.33
2019-02-08T11:14:00.755Z,102.80
2019-02-08T11:16:51.386Z,96.73
2019-02-08T11:19:21.542Z,99.70
2019-02-08T11:21:54.337Z,97.87
2019-02-08T11:24:25.101Z,98.83
2019-02-08T11:26:55.478Z,98.80
2019-02-08T11:29:25.689Z,96.93
2019-02-08T11:31:56.244Z,101.73
2019-02-08T11:34:25.544Z,97.10
2019-02-08T11:36:55.287Z,101.63
2019-02-08T11:39:30.185Z,107.10
2019-02-08T11:42:00.680Z,102.87
2019-02-08T11:44:28.902Z,101.07
2019-02-08T11:46:56.871Z,101.13
2019-02-08T11:49:25.173Z,96.67
2019-02-08T11:51:54.786Z,98.80
2019-02-08T11:54:24.004Z,96.20
2019-02-08T11:56:53.837Z,98.20
2019-02-08T11:59:23.282Z,95.40
2019-02-08T12:01:53.031Z,112.33
2019-02-08T12:04:22.804Z,93.60
2019-02-08T12:06:55.045Z,93.30
2019-02-08T12:09:24.695Z,98.67
2019-02-08T12:11:54.425Z,97.07
2019-02-08T12:14:23.008Z,95.73
2019-02-08T12:16:52.720Z,91.00
2019-02-08T12:19:22.190Z,94.20
2019-02-08T12:21:51.697Z,85.47
2019-02-08T12:24:21.817Z,107.47
2019-02-08T12:26:52.547Z,91.87
2019-02-08T12:29:22.354Z,93.20
2019-02-08T12:31:53.116Z,91.47
2019-02-08T12:34:22.731Z,95.30
2019-02-08T12:36:52.450Z,95.87
2019-02-08T12:39:22.043Z,91.70
2019-02-08T12:41:51.409Z,89.07
2019-02-08T12:44:19.460Z,88.17
2019-02-08T12:46:47.543Z,92.13
2019-02-08T12:49:15.617Z,94.23
2019-02-08T12:51:44.676Z,86.30
2019-02-08T12:54:12.612Z,85.97
2019-02-08T12:56:45.419Z,87.83
2019-02-08T12:59:16.432Z,87.13
2019-02-08T13:01:44.406Z,89.30
2019-02-08T13:04:12.397Z,91.87
2019-02-08T13:06:40.319Z,88.97
2019-02-08T13:09:10.187Z,86.43
2019-02-08T13:11:46.161Z,97.37
2019-02-08T13:14:14.218Z,84.90
2019-02-08T13:16:45.872Z,84.70
2019-02-08T13:19:13.787Z,91.37
2019-02-08T13:21:41.770Z,97.77
2019-02-08T13:24:11.697Z,91.67
2019-02-08T13:26:41.840Z,87.77
2019-02-08T13:29:11.451Z,81.70
2019-02-08T13:31:41.533Z,84.30
2019-02-08T13:34:10.760Z,83.40
2019-02-08T13:36:39.756Z,84.30
2019-02-08T13:39:10.312Z,82.33
2019-02-08T13:41:39.742Z,81.67
2019-02-08T13:44:09.222Z,83.40
2019-02-08T13:46:38.693Z,81.50
2019-02-08T13:49:07.721Z,82.17
2019-02-08T13:51:36.504Z,85.27
2019-02-08T13:54:06.431Z,82.10
2019-02-08T13:56:36.033Z,89.17
2019-02-08T13:59:05.554Z,81.50
2019-02-08T14:01:34.848Z,81.60
2019-02-08T14:04:05.769Z,80.47
2019-02-08T14:06:34.214Z,83.17
2019-02-08T14:09:05.003Z,88.63
2019-02-08T14:11:34.969Z,83.30
2019-02-08T14:14:04.334Z,97.40
2019-02-08T14:16:35.258Z,86.90
2019-02-08T14:19:04.787Z,82.23
2019-02-08T14:21:35.145Z,86.00
2019-02-08T14:24:05.696Z,85.27
2019-02-08T14:26:35.261Z,82.90
2019-02-08T14:29:06.377Z,86.83
2019-02-08T14:31:35.845Z,80.77
2019-02-08T14:34:05.227Z,79.93
2019-02-08T14:36:33.246Z,82.80
2019-02-08T14:39:02.430Z,78.20
2019-02-08T14:41:33.157Z,82.47
2019-02-08T14:44:03.013Z,81.63
2019-02-08T14:46:32.324Z,88.37
2019-02-08T14:49:01.446Z,84.80
2019-02-08T14:51:31.972Z,83.83
2019-02-08T14:54:01.573Z,78.90
2019-02-08T14:56:30.871Z,83.20
2019-02-08T14:59:00.460Z,81.20
2019-02-08T15:01:29.584Z,80.40
2019-02-08T15:03:58.298Z,84.77
2019-02-08T15:06:26.375Z,81.20
2019-02-08T15:08:54.348Z,80.10
2019-02-08T15:11:22.356Z,82.87
2019-02-08T15:13:50.265Z,83.87
2019-02-08T15:16:19.453Z,83.73
2019-02-08T15:18:47.607Z,85.10
2019-02-08T15:21:15.703Z,83.07
2019-02-08T15:23:50.491Z,81.33
2019-02-08T15:26:19.528Z,85.97
2019-02-08T15:28:47.501Z,87.33
2019-02-08T15:31:15.482Z,90.67
2019-02-08T15:33:43.500Z,82.57
2019-02-08T15:36:11.672Z,91.10
2019-02-08T15:38:39.772Z,92.47
2019-02-08T15:41:07.816Z,87.17
2019-02-08T15:43:35.896Z,88.37
2019-02-08T15:46:05.100Z,94.43
2019-02-08T15:48:33.195Z,88.03
2019-02-08T15:51:01.203Z,91.07
2019-02-08T15:53:29.192Z,94.63
2019-02-08T15:55:59.200Z,89.70
2019-02-08T15:58:27.192Z,94.60
2019-02-08T16:00:55.235Z,94.60
2019-02-08T16:03:24.415Z,93.90
2019-02-08T16:05:52.463Z,99.80
2019-02-08T16:08:22.801Z,90.90
2019-02-08T16:10:52.054Z,101.17
2019-02-08T16:13:21.519Z,100.00
2019-02-08T16:15:49.639Z,96.77
2019-02-08T16:18:18.659Z,96.37
2019-02-08T16:20:47.010Z,110.80
2019-02-08T16:23:15.303Z,100.10
2019-02-08T16:25:43.385Z,97.87
2019-02-08T16:28:12.558Z,102.67
2019-02-08T16:30:40.791Z,101.50
2019-02-08T16:33:08.896Z,102.20
2019-02-08T16:35:37.052Z,102.57
2019-02-08T16:38:05.369Z,104.77
2019-02-08T16:40:34.085Z,102.17
2019-02-08T16:43:02.267Z,105.97
2019-02-08T16:45:31.234Z,101.33
2019-02-08T16:47:59.825Z,99.03
2019-02-08T16:50:28.571Z,105.83
2019-02-08T16:52:56.822Z,105.57
2019-02-08T16:55:25.006Z,109.77
2019-02-08T16:57:53.137Z,108.70
2019-02-08T17:00:22.627Z,101.00
2019-02-08T17:02:50.670Z,101.47
2019-02-08T17:05:19.153Z,106.63
2019-02-08T17:07:47.238Z,104.20
2019-02-08T17:10:15.899Z,102.93
2019-02-08T17:12:43.981Z,100.20
2019-02-08T17:15:13.339Z,108.37
2019-02-08T17:17:41.399Z,105.67
2019-02-08T17:20:11.674Z,103.43
2019-02-08T17:22:39.703Z,109.20
2019-02-08T17:25:07.719Z,102.73
2019-02-08T17:27:36.044Z,103.93
2019-02-08T17:30:05.994Z,97.87
2019-02-08T17:32:33.981Z,118.20
2019-02-08T17:35:01.933Z,108.33
2019-02-08T17:37:30.099Z,105.07
2019-02-08T17:39:58.605Z,103.07
2019-02-08T17:42:26.687Z,103.97
2019-02-08T17:44:54.772Z,105.87
2019-02-08T17:47:22.808Z,105.33
2019-02-08T17:49:50.884Z,107.37
2019-02-08T17:52:19.008Z,107.67
2019-02-08T17:54:47.077Z,103.07
2019-02-08T17:57:15.074Z,105.17
2019-02-08T17:59:43.155Z,98.87
2019-02-08T18:02:11.109Z,107.30
2019-02-08T18:04:39.144Z,108.47
2019-02-08T18:07:07.227Z,112.50
2019-02-08T18:09:35.319Z,106.67
2019-02-08T18:12:03.300Z,99.43
2019-02-08T18:14:31.307Z,100.60
2019-02-08T18:16:59.507Z,103.13
2019-02-08T18:19:27.700Z,107.33
2019-02-08T18:21:55.704Z,99.50
2019-02-08T18:24:23.794Z,102.57
2019-02-08T18:26:51.860Z,111.47
2019-02-08T18:29:20.252Z,124.07
2019-02-08T18:31:48.311Z,108.53
2019-02-08T18:34:16.383Z,115.00
2019-02-08T18:36:44.494Z,100.60
2019-02-08T18:39:12.444Z,105.23
2019-02-08T18:41:40.463Z,107.30
2019-02-08T18:44:08.503Z,106.97
2019-02-08T18:46:36.516Z,107.50
2019-02-08T18:49:04.471Z,109.07
2019-02-08T18:51:32.983Z,106.03
2019-02-08T18:54:01.047Z,112.87
2019-02-08T18:56:29.128Z,111.53
2019-02-08T18:58:57.080Z,100.90
2019-02-08T19:01:25.058Z,112.80
2019-02-08T19:03:53.160Z,108.60
2019-02-08T19:06:21.101Z,108.43
2019-02-08T19:08:49.997Z,106.00
2019-02-08T19:11:18.000Z,104.77
2019-02-08T19:13:46.047Z,105.33
2019-02-08T19:16:14.073Z,114.17
2019-02-08T19:18:42.137Z,112.07
2019-02-08T19:21:11.147Z,108.47
2019-02-08T19:23:39.144Z,108.50
2019-02-08T19:26:07.086Z,103.90
2019-02-08T19:28:36.147Z,105.70
2019-02-08T19:31:04.238Z,110.20
2019-02-08T19:33:32.229Z,104.27
2019-02-08T19:36:00.503Z,102.77
2019-02-08T19:38:28.528Z,115.23
2019-02-08T19:40:56.493Z,116.87
2019-02-08T19:43:24.474Z,111.17
2019-02-08T19:45:52.501Z,112.50
2019-02-08T19:48:20.886Z,109.57
2019-02-08T19:50:49.057Z,115.00
2019-02-08T19:53:17.035Z,111.20
2019-02-08T19:55:45.083Z,110.80
2019-02-08T19:58:13.063Z,111.50
2019-02-08T20:00:41.520Z,111.90
2019-02-08T20:03:09.582Z,113.97
2019-02-08T20:05:37.600Z,109.93
2019-02-08T20:08:08.051Z,107.77
2019-02-08T20:10:37.136Z,110.33
2019-02-08T20:13:05.252Z,105.10
2019-02-08T20:15:33.228Z,110.27
2019-02-08T20:18:01.308Z,109.30
2019-02-08T20:20:30.428Z,110.83
2019-02-08T20:22:58.501Z,113.40
2019-02-08T20:25:30.652Z,111.07
2019-02-08T20:27:58.696Z,114.17
2019-02-08T20:30:26.892Z,116.93
2019-02-08T20:32:54.883Z,114.10
2019-02-08T20:35:23.568Z,111.77
2019-02-08T20:37:51.715Z,106.47
2019-02-08T20:40:21.084Z,105.20
2019-02-08T20:42:49.264Z,112.47
2019-02-08T20:45:19.473Z,114.53
2019-02-08T20:47:47.450Z,112.03
2019-02-08T20:50:16.061Z,111.83
2019-02-08T20:52:44.141Z,118.10
2019-02-08T20:55:12.625Z,129.33
2019-02-08T20:57:40.741Z,122.77
2019-02-08T21:00:18.327Z,129.83
2019-02-08T21:02:46.439Z,113.73
2019-02-08T21:05:14.516Z,120.13
2019-02-08T21:07:42.618Z,108.43
2019-02-08T21:10:10.824Z,108.73
2019-02-08T21:12:38.881Z,113.33
2019-02-08T21:15:07.093Z,105.40
2019-02-08T21:17:35.103Z,110.13
2019-02-08T21:20:03.156Z,111.70
2019-02-08T21:22:31.140Z,115.70
2019-02-08T21:24:59.133Z,114.23
2019-02-08T21:27:27.180Z,115.83
2019-02-08T21:29:57.753Z,113.50
2019-02-08T21:32:25.774Z,109.50
2019-02-08T21:34:53.761Z,111.27
2019-02-08T21:37:21.826Z,113.90
2019-02-08T21:39:50.182Z,118.47
2019-02-08T21:42:18.185Z,113.90
2019-02-08T21:44:46.140Z,114.43
2019-02-08T21:47:14.119Z,110.10
2019-02-08T21:49:43.093Z,107.07
2019-02-08T21:52:11.105Z,111.03
2019-02-08T21:54:39.065Z,112.47
2019-02-08T21:57:06.991Z,107.45
2019-02-08T21:59:34.997Z,107.63
2019-02-08T22:02:03.041Z,112.77
2019-02-08T22:04:31.120Z,102.65
2019-02-08T22:06:59.097Z,107.43
2019-02-08T22:09:27.144Z,105.00
2019-02-08T22:11:55.156Z,111.55
2019-02-08T22:14:23.189Z,112.80
2019-02-08T22:16:51.203Z,104.63
2019-02-08T22:19:19.135Z,107.70
2019-02-08T22:21:47.131Z,106.30
2019-02-08T22:24:15.191Z,112.03
2019-02-08T22:26:43.253Z,106.63
2019-02-08T22:29:14.211Z,99.67
2019-02-08T22:31:40.956Z,106.60
2019-02-08T22:34:08.979Z,108.60
2019-02-08T22:36:36.968Z,104.07
2019-02-08T22:39:06.910Z,112.12
2019-02-08T22:41:34.893Z,103.05
2019-02-08T22:44:02.908Z,108.17
2019-02-08T22:46:31.506Z,103.33
2019-02-08T22:48:59.382Z,104.53
2019-02-08T22:51:27.349Z,105.78
2019-02-08T22:53:55.339Z,109.37
2019-02-08T22:56:23.290Z,110.57
2019-02-08T22:58:51.273Z,105.20
2019-02-08T23:01:30.264Z,122.17
2019-02-08T23:03:59.191Z,118.87
2019-02-08T23:06:27.160Z,111.07
2019-02-08T23:08:55.380Z,114.08
2019-02-08T23:11:23.568Z,104.87
2019-02-08T23:13:51.555Z,111.13
2019-02-08T23:16:19.550Z,110.35
2019-02-08T23:18:47.499Z,104.27
2019-02-08T23:21:15.533Z,101.62
2019-02-08T23:23:43.557Z,105.05
2019-02-08T23:26:11.624Z,107.80
2019-02-08T23:28:40.188Z,108.55
2019-02-08T23:31:08.294Z,102.10
2019-02-08T23:33:36.233Z,103.15
2019-02-08T23:36:04.700Z,106.73
2019-02-08T23:38:32.672Z,108.27
2019-02-08T23:41:00.663Z,101.22
2019-02-08T23:43:28.775Z,115.45
2019-02-08T23:45:56.790Z,104.23
2019-02-08T23:48:24.869Z,107.87
2019-02-08T23:50:52.941Z,108.60
2019-02-08T23:53:21.021Z,103.07
2019-02-08T23:55:49.072Z,107.13
2019-02-08T23:58:17.059Z,108.63
